sensor_id;sensor_type;location;lat;lon;timestamp;temperature;humidity
14529;DHT22;7351;51.194;4.098;2023-03-17T00:00:51;17.20;99.90
14529;DHT22;7351;51.194;4.098;2023-03-17T00:03:20;17.20;99.90
14529;DHT22;7351;51.194;4.098;2023-03-17T00:05:48;17.10;99.90
14529;DHT22;7351;51.194;4.098;2023-03-17T00:08:19;17.10;99.90
14529;DHT22;7351;51.194;4.098;2023-03-17T00:10:49;17.10;99.90
14529;DHT22;7351;51.194;4.098;2023-03-17T00:13:16;17.10;99.90
14529;DHT22;7351;51.194;4.098;2023-03-17T00:15:43;17.10;99.90
14529;DHT22;7351;51.194;4.098;2023-03-17T00:18:13;17.10;99.90
14529;DHT22;7351;51.194;4.098;2023-03-17T00:20:42;17.10;99.90
14529;DHT22;7351;51.194;4.098;2023-03-17T00:23:13;17.10;99.90
14529;DHT22;7351;51.194;4.098;2023-03-17T00:25:41;17.10;99.90
14529;DHT22;7351;51.194;4.098;2023-03-17T00:28:14;17.10;99.90
14529;DHT22;7351;51.194;4.098;2023-03-17T00:30:42;17.10;99.90
14529;DHT22;7351;51.194;4.098;2023-03-17T00:33:09;17.10;99.90
14529;DHT22;7351;51.194;4.098;2023-03-17T00:35:37;17.10;99.90
14529;DHT22;7351;51.194;4.098;2023-03-17T00:38:06;17.00;99.90
14529;DHT22;7351;51.194;4.098;2023-03-17T00:40:35;17.00;99.90
14529;DHT22;7351;51.194;4.098;2023-03-17T00:43:02;17.00;99.90
14529;DHT22;7351;51.194;4.098;2023-03-17T00:45:30;17.00;99.90
14529;DHT22;7351;51.194;4.098;2023-03-17T00:47:58;17.00;99.90
14529;DHT22;7351;51.194;4.098;2023-03-17T00:50:27;17.00;99.90
14529;DHT22;7351;51.194;4.098;2023-03-17T00:52:56;17.00;99.90
14529;DHT22;7351;51.194;4.098;2023-03-17T00:55:24;17.00;99.90
14529;DHT22;7351;51.194;4.098;2023-03-17T00:57:52;17.00;99.90
14529;DHT22;7351;51.194;4.098;2023-03-17T01:00:22;17.00;99.90
14529;DHT22;7351;51.194;4.098;2023-03-17T01:02:52;16.90;99.90
14529;DHT22;7351;51.194;4.098;2023-03-17T01:05:20;17.00;99.90
14529;DHT22;7351;51.194;4.098;2023-03-17T01:07:50;17.00;99.90
14529;DHT22;7351;51.194;4.098;2023-03-17T01:10:20;17.00;99.90
14529;DHT22;7351;51.194;4.098;2023-03-17T01:12:49;17.00;99.90
14529;DHT22;7351;51.194;4.098;2023-03-17T01:15:17;16.90;99.90
14529;DHT22;7351;51.194;4.098;2023-03-17T01:17:44;17.00;99.90
14529;DHT22;7351;51.194;4.098;2023-03-17T01:20:16;16.90;99.90
14529;DHT22;7351;51.194;4.098;2023-03-17T01:22:43;16.90;99.90
14529;DHT22;7351;51.194;4.098;2023-03-17T01:25:11;16.90;99.90
14529;DHT22;7351;51.194;4.098;2023-03-17T01:27:39;16.90;99.90
14529;DHT22;7351;51.194;4.098;2023-03-17T01:30:09;16.90;99.90
14529;DHT22;7351;51.194;4.098;2023-03-17T01:32:39;16.90;99.90
14529;DHT22;7351;51.194;4.098;2023-03-17T01:35:06;16.90;99.90
14529;DHT22;7351;51.194;4.098;2023-03-17T01:37:35;16.80;99.90
14529;DHT22;7351;51.194;4.098;2023-03-17T01:40:02;16.80;99.90
14529;DHT22;7351;51.194;4.098;2023-03-17T01:42:29;16.80;99.90
14529;DHT22;7351;51.194;4.098;2023-03-17T01:44:58;16.80;99.90
14529;DHT22;7351;51.194;4.098;2023-03-17T01:47:26;16.90;99.90
14529;DHT22;7351;51.194;4.098;2023-03-17T01:49:55;16.80;99.90
14529;DHT22;7351;51.194;4.098;2023-03-17T01:52:25;16.90;99.90
14529;DHT22;7351;51.194;4.098;2023-03-17T01:54:56;16.80;99.90
14529;DHT22;7351;51.194;4.098;2023-03-17T01:57:27;16.80;99.90
14529;DHT22;7351;51.194;4.098;2023-03-17T01:59:58;16.80;99.90
14529;DHT22;7351;51.194;4.098;2023-03-17T02:02:30;16.90;99.90
14529;DHT22;7351;51.194;4.098;2023-03-17T02:04:57;16.80;99.90
14529;DHT22;7351;51.194;4.098;2023-03-17T02:07:26;16.80;99.90
14529;DHT22;7351;51.194;4.098;2023-03-17T02:09:55;16.80;99.90
14529;DHT22;7351;51.194;4.098;2023-03-17T02:12:24;16.80;99.90
14529;DHT22;7351;51.194;4.098;2023-03-17T02:14:53;16.80;99.90
14529;DHT22;7351;51.194;4.098;2023-03-17T02:17:22;16.80;99.90
14529;DHT22;7351;51.194;4.098;2023-03-17T02:19:50;16.80;99.90
14529;DHT22;7351;51.194;4.098;2023-03-17T02:22:19;16.80;99.90
14529;DHT22;7351;51.194;4.098;2023-03-17T02:24:48;16.80;99.90
14529;DHT22;7351;51.194;4.098;2023-03-17T02:27:18;16.80;99.90
14529;DHT22;7351;51.194;4.098;2023-03-17T02:29:48;16.80;99.90
14529;DHT22;7351;51.194;4.098;2023-03-17T02:32:17;16.80;99.90
14529;DHT22;7351;51.194;4.098;2023-03-17T02:34:47;16.80;99.90
14529;DHT22;7351;51.194;4.098;2023-03-17T02:37:15;16.80;99.90
14529;DHT22;7351;51.194;4.098;2023-03-17T02:39:44;16.70;99.90
14529;DHT22;7351;51.194;4.098;2023-03-17T02:42:12;16.70;99.90
14529;DHT22;7351;51.194;4.098;2023-03-17T02:44:39;16.70;99.90
14529;DHT22;7351;51.194;4.098;2023-03-17T02:47:06;16.70;99.90
14529;DHT22;7351;51.194;4.098;2023-03-17T02:49:34;16.80;99.90
14529;DHT22;7351;51.194;4.098;2023-03-17T02:52:02;16.70;99.90
14529;DHT22;7351;51.194;4.098;2023-03-17T02:54:30;16.70;99.90
14529;DHT22;7351;51.194;4.098;2023-03-17T02:56:58;16.70;99.90
14529;DHT22;7351;51.194;4.098;2023-03-17T02:59:26;16.60;99.90
14529;DHT22;7351;51.194;4.098;2023-03-17T03:01:53;16.70;99.90
14529;DHT22;7351;51.194;4.098;2023-03-17T03:04:21;16.70;99.90
14529;DHT22;7351;51.194;4.098;2023-03-17T03:06:50;16.70;99.90
14529;DHT22;7351;51.194;4.098;2023-03-17T03:09:18;16.70;99.90
14529;DHT22;7351;51.194;4.098;2023-03-17T03:11:45;16.70;99.90
14529;DHT22;7351;51.194;4.098;2023-03-17T03:14:14;16.60;99.90
14529;DHT22;7351;51.194;4.098;2023-03-17T03:16:41;16.60;99.90
14529;DHT22;7351;51.194;4.098;2023-03-17T03:19:09;16.60;99.90
14529;DHT22;7351;51.194;4.098;2023-03-17T03:21:36;16.60;99.90
14529;DHT22;7351;51.194;4.098;2023-03-17T03:24:04;16.60;99.90
14529;DHT22;7351;51.194;4.098;2023-03-17T03:26:31;16.60;99.90
14529;DHT22;7351;51.194;4.098;2023-03-17T03:28:58;16.60;99.90
14529;DHT22;7351;51.194;4.098;2023-03-17T03:31:27;16.60;99.90
14529;DHT22;7351;51.194;4.098;2023-03-17T03:33:54;16.60;99.90
14529;DHT22;7351;51.194;4.098;2023-03-17T03:36:21;16.60;99.90
14529;DHT22;7351;51.194;4.098;2023-03-17T03:38:49;16.60;99.90
14529;DHT22;7351;51.194;4.098;2023-03-17T03:41:16;16.60;99.90
14529;DHT22;7351;51.194;4.098;2023-03-17T03:43:43;16.60;99.90
14529;DHT22;7351;51.194;4.098;2023-03-17T03:46:10;16.60;99.90
14529;DHT22;7351;51.194;4.098;2023-03-17T03:48:39;16.60;99.90
14529;DHT22;7351;51.194;4.098;2023-03-17T03:51:05;16.60;99.90
14529;DHT22;7351;51.194;4.098;2023-03-17T03:53:32;16.60;99.90
14529;DHT22;7351;51.194;4.098;2023-03-17T03:56:00;16.60;99.90
14529;DHT22;7351;51.194;4.098;2023-03-17T03:58:27;16.60;99.90
14529;DHT22;7351;51.194;4.098;2023-03-17T04:00:54;16.60;99.90
14529;DHT22;7351;51.194;4.098;2023-03-17T04:03:21;16.60;99.90
14529;DHT22;7351;51.194;4.098;2023-03-17T04:05:49;16.50;99.90
14529;DHT22;7351;51.194;4.098;2023-03-17T04:08:17;16.50;99.90
14529;DHT22;7351;51.194;4.098;2023-03-17T04:10:44;16.60;99.90
14529;DHT22;7351;51.194;4.098;2023-03-17T04:13:11;16.60;99.90
14529;DHT22;7351;51.194;4.098;2023-03-17T04:15:38;16.60;99.90
14529;DHT22;7351;51.194;4.098;2023-03-17T04:18:05;16.60;99.90
14529;DHT22;7351;51.194;4.098;2023-03-17T04:20:32;16.60;99.90
14529;DHT22;7351;51.194;4.098;2023-03-17T04:23:00;16.60;99.90
14529;DHT22;7351;51.194;4.098;2023-03-17T04:25:27;16.60;99.90
14529;DHT22;7351;51.194;4.098;2023-03-17T04:27:54;16.50;99.90
14529;DHT22;7351;51.194;4.098;2023-03-17T04:30:21;16.50;99.90
14529;DHT22;7351;51.194;4.098;2023-03-17T04:32:48;16.50;99.90
14529;DHT22;7351;51.194;4.098;2023-03-17T04:35:17;16.50;99.90
14529;DHT22;7351;51.194;4.098;2023-03-17T04:37:44;16.50;99.90
14529;DHT22;7351;51.194;4.098;2023-03-17T04:40:15;16.50;99.90
14529;DHT22;7351;51.194;4.098;2023-03-17T04:42:42;16.50;99.90
14529;DHT22;7351;51.194;4.098;2023-03-17T04:45:11;16.50;99.90
14529;DHT22;7351;51.194;4.098;2023-03-17T04:47:40;16.50;99.90
14529;DHT22;7351;51.194;4.098;2023-03-17T04:50:08;16.50;99.90
14529;DHT22;7351;51.194;4.098;2023-03-17T04:52:36;16.60;99.90
14529;DHT22;7351;51.194;4.098;2023-03-17T04:55:04;16.70;99.90
14529;DHT22;7351;51.194;4.098;2023-03-17T04:57:32;16.70;99.90
14529;DHT22;7351;51.194;4.098;2023-03-17T05:00:00;16.80;99.90
14529;DHT22;7351;51.194;4.098;2023-03-17T05:02:27;16.90;99.90
14529;DHT22;7351;51.194;4.098;2023-03-17T05:04:55;17.00;99.90
14529;DHT22;7351;51.194;4.098;2023-03-17T05:07:22;17.00;99.90
14529;DHT22;7351;51.194;4.098;2023-03-17T05:09:49;17.20;99.90
14529;DHT22;7351;51.194;4.098;2023-03-17T05:12:16;17.20;99.90
14529;DHT22;7351;51.194;4.098;2023-03-17T05:14:44;17.30;99.90
14529;DHT22;7351;51.194;4.098;2023-03-17T05:17:11;17.40;99.90
14529;DHT22;7351;51.194;4.098;2023-03-17T05:19:38;17.40;99.90
14529;DHT22;7351;51.194;4.098;2023-03-17T05:22:05;17.50;99.90
14529;DHT22;7351;51.194;4.098;2023-03-17T05:24:33;17.60;99.90
14529;DHT22;7351;51.194;4.098;2023-03-17T05:26:59;17.60;99.90
14529;DHT22;7351;51.194;4.098;2023-03-17T05:29:26;17.60;99.90
14529;DHT22;7351;51.194;4.098;2023-03-17T05:31:55;17.70;99.90
14529;DHT22;7351;51.194;4.098;2023-03-17T05:34:22;17.70;99.90
14529;DHT22;7351;51.194;4.098;2023-03-17T05:36:49;17.70;99.90
14529;DHT22;7351;51.194;4.098;2023-03-17T05:39:16;17.80;99.90
14529;DHT22;7351;51.194;4.098;2023-03-17T05:41:43;17.80;99.90
14529;DHT22;7351;51.194;4.098;2023-03-17T05:44:10;17.80;99.90
14529;DHT22;7351;51.194;4.098;2023-03-17T05:46:37;17.90;99.90
14529;DHT22;7351;51.194;4.098;2023-03-17T05:49:05;17.90;99.90
14529;DHT22;7351;51.194;4.098;2023-03-17T05:51:32;18.00;99.90
14529;DHT22;7351;51.194;4.098;2023-03-17T05:53:59;18.00;99.90
14529;DHT22;7351;51.194;4.098;2023-03-17T05:56:26;18.10;99.90
14529;DHT22;7351;51.194;4.098;2023-03-17T05:58:58;18.10;99.90
14529;DHT22;7351;51.194;4.098;2023-03-17T06:01:26;18.10;99.90
14529;DHT22;7351;51.194;4.098;2023-03-17T06:03:53;18.10;99.90
14529;DHT22;7351;51.194;4.098;2023-03-17T06:06:21;18.20;99.90
14529;DHT22;7351;51.194;4.098;2023-03-17T06:08:49;18.20;99.90
14529;DHT22;7351;51.194;4.098;2023-03-17T06:11:16;18.20;99.90
14529;DHT22;7351;51.194;4.098;2023-03-17T06:13:45;18.30;99.90
14529;DHT22;7351;51.194;4.098;2023-03-17T06:16:12;18.30;99.90
14529;DHT22;7351;51.194;4.098;2023-03-17T06:18:39;18.30;99.90
14529;DHT22;7351;51.194;4.098;2023-03-17T06:21:06;18.40;99.90
14529;DHT22;7351;51.194;4.098;2023-03-17T06:23:35;18.40;99.90
14529;DHT22;7351;51.194;4.098;2023-03-17T06:26:02;18.40;99.90
14529;DHT22;7351;51.194;4.098;2023-03-17T06:28:29;18.50;99.90
14529;DHT22;7351;51.194;4.098;2023-03-17T06:30:56;18.50;99.90
14529;DHT22;7351;51.194;4.098;2023-03-17T06:33:24;18.60;99.90
14529;DHT22;7351;51.194;4.098;2023-03-17T06:35:51;18.60;99.90
14529;DHT22;7351;51.194;4.098;2023-03-17T06:38:18;18.60;99.90
14529;DHT22;7351;51.194;4.098;2023-03-17T06:40:47;18.70;99.90
14529;DHT22;7351;51.194;4.098;2023-03-17T06:43:15;18.70;99.90
14529;DHT22;7351;51.194;4.098;2023-03-17T06:45:44;18.70;99.90
14529;DHT22;7351;51.194;4.098;2023-03-17T06:48:11;18.70;99.90
14529;DHT22;7351;51.194;4.098;2023-03-17T06:50:38;18.80;99.90
14529;DHT22;7351;51.194;4.098;2023-03-17T06:53:05;18.80;99.90
14529;DHT22;7351;51.194;4.098;2023-03-17T06:55:32;18.90;99.90
14529;DHT22;7351;51.194;4.098;2023-03-17T06:58:00;18.90;99.90
14529;DHT22;7351;51.194;4.098;2023-03-17T07:00:28;18.90;99.90
14529;DHT22;7351;51.194;4.098;2023-03-17T07:02:56;18.90;99.90
14529;DHT22;7351;51.194;4.098;2023-03-17T07:05:23;18.90;99.90
14529;DHT22;7351;51.194;4.098;2023-03-17T07:07:50;19.00;99.90
14529;DHT22;7351;51.194;4.098;2023-03-17T07:10:17;19.00;99.90
14529;DHT22;7351;51.194;4.098;2023-03-17T07:12:44;18.90;99.90
14529;DHT22;7351;51.194;4.098;2023-03-17T07:15:14;19.00;99.90
14529;DHT22;7351;51.194;4.098;2023-03-17T07:17:42;18.90;99.90
14529;DHT22;7351;51.194;4.098;2023-03-17T07:20:11;18.90;99.90
14529;DHT22;7351;51.194;4.098;2023-03-17T07:22:38;18.90;99.90
14529;DHT22;7351;51.194;4.098;2023-03-17T07:25:06;18.80;99.90
14529;DHT22;7351;51.194;4.098;2023-03-17T07:27:34;18.80;99.90
14529;DHT22;7351;51.194;4.098;2023-03-17T07:30:02;18.70;99.90
14529;DHT22;7351;51.194;4.098;2023-03-17T07:32:31;18.60;99.90
14529;DHT22;7351;51.194;4.098;2023-03-17T07:34:58;18.60;99.90
14529;DHT22;7351;51.194;4.098;2023-03-17T07:37:25;18.60;99.90
14529;DHT22;7351;51.194;4.098;2023-03-17T07:39:52;18.50;99.90
14529;DHT22;7351;51.194;4.098;2023-03-17T07:42:19;18.40;99.90
14529;DHT22;7351;51.194;4.098;2023-03-17T07:44:46;18.30;99.90
14529;DHT22;7351;51.194;4.098;2023-03-17T07:47:13;18.30;99.90
14529;DHT22;7351;51.194;4.098;2023-03-17T07:49:42;18.20;99.90
14529;DHT22;7351;51.194;4.098;2023-03-17T07:52:09;18.20;99.90
14529;DHT22;7351;51.194;4.098;2023-03-17T07:54:37;18.20;99.90
14529;DHT22;7351;51.194;4.098;2023-03-17T07:57:05;18.10;99.90
14529;DHT22;7351;51.194;4.098;2023-03-17T07:59:33;18.10;99.90
14529;DHT22;7351;51.194;4.098;2023-03-17T08:02:00;18.00;99.90
14529;DHT22;7351;51.194;4.098;2023-03-17T08:04:27;18.00;99.90
14529;DHT22;7351;51.194;4.098;2023-03-17T08:06:56;18.00;99.90
14529;DHT22;7351;51.194;4.098;2023-03-17T08:09:23;18.00;99.90
14529;DHT22;7351;51.194;4.098;2023-03-17T08:11:51;18.00;99.90
14529;DHT22;7351;51.194;4.098;2023-03-17T08:14:18;17.90;99.90
14529;DHT22;7351;51.194;4.098;2023-03-17T08:16:45;17.90;99.90
14529;DHT22;7351;51.194;4.098;2023-03-17T08:19:12;17.90;99.90
14529;DHT22;7351;51.194;4.098;2023-03-17T08:21:39;17.90;99.90
14529;DHT22;7351;51.194;4.098;2023-03-17T08:24:08;17.90;99.90
14529;DHT22;7351;51.194;4.098;2023-03-17T08:26:35;17.80;99.90
14529;DHT22;7351;51.194;4.098;2023-03-17T08:29:02;17.80;99.90
14529;DHT22;7351;51.194;4.098;2023-03-17T08:31:30;17.80;99.90
14529;DHT22;7351;51.194;4.098;2023-03-17T08:33:58;17.80;99.90
14529;DHT22;7351;51.194;4.098;2023-03-17T08:36:27;17.70;99.90
14529;DHT22;7351;51.194;4.098;2023-03-17T08:38:55;17.70;99.90
14529;DHT22;7351;51.194;4.098;2023-03-17T08:41:26;17.70;99.90
14529;DHT22;7351;51.194;4.098;2023-03-17T08:43:53;17.70;99.90
14529;DHT22;7351;51.194;4.098;2023-03-17T08:46:22;17.70;99.90
14529;DHT22;7351;51.194;4.098;2023-03-17T08:48:51;17.60;99.90
14529;DHT22;7351;51.194;4.098;2023-03-17T08:51:20;17.60;99.90
14529;DHT22;7351;51.194;4.098;2023-03-17T08:53:47;17.60;99.90
14529;DHT22;7351;51.194;4.098;2023-03-17T08:56:14;17.60;99.90
14529;DHT22;7351;51.194;4.098;2023-03-17T08:58:43;17.60;99.90
14529;DHT22;7351;51.194;4.098;2023-03-17T09:01:10;17.50;99.90
14529;DHT22;7351;51.194;4.098;2023-03-17T09:03:39;17.50;99.90
14529;DHT22;7351;51.194;4.098;2023-03-17T09:06:08;17.40;99.90
14529;DHT22;7351;51.194;4.098;2023-03-17T09:08:38;17.50;99.90
14529;DHT22;7351;51.194;4.098;2023-03-17T09:11:06;17.50;99.90
14529;DHT22;7351;51.194;4.098;2023-03-17T09:13:35;17.50;99.90
14529;DHT22;7351;51.194;4.098;2023-03-17T09:16:05;17.50;99.90
14529;DHT22;7351;51.194;4.098;2023-03-17T09:18:33;17.40;99.90
14529;DHT22;7351;51.194;4.098;2023-03-17T09:21:00;17.40;99.90
14529;DHT22;7351;51.194;4.098;2023-03-17T09:23:28;17.40;99.90
14529;DHT22;7351;51.194;4.098;2023-03-17T09:25:55;17.40;99.90
14529;DHT22;7351;51.194;4.098;2023-03-17T09:28:22;17.50;99.90
14529;DHT22;7351;51.194;4.098;2023-03-17T09:30:49;17.50;99.90
14529;DHT22;7351;51.194;4.098;2023-03-17T09:33:18;17.50;99.90
14529;DHT22;7351;51.194;4.098;2023-03-17T09:35:45;17.50;99.90
14529;DHT22;7351;51.194;4.098;2023-03-17T09:38:12;17.50;99.90
14529;DHT22;7351;51.194;4.098;2023-03-17T09:40:46;17.50;99.90
14529;DHT22;7351;51.194;4.098;2023-03-17T09:43:22;17.50;99.90
14529;DHT22;7351;51.194;4.098;2023-03-17T09:45:52;17.50;99.90
14529;DHT22;7351;51.194;4.098;2023-03-17T09:48:36;17.50;99.90
14529;DHT22;7351;51.194;4.098;2023-03-17T09:51:07;17.50;99.90
14529;DHT22;7351;51.194;4.098;2023-03-17T09:53:45;17.50;99.90
14529;DHT22;7351;51.194;4.098;2023-03-17T09:56:16;17.50;99.90
14529;DHT22;7351;51.194;4.098;2023-03-17T09:58:48;17.40;99.90
14529;DHT22;7351;51.194;4.098;2023-03-17T10:01:16;17.50;99.90
14529;DHT22;7351;51.194;4.098;2023-03-17T10:03:45;17.50;99.90
14529;DHT22;7351;51.194;4.098;2023-03-17T10:06:31;17.40;99.90
14529;DHT22;7351;51.194;4.098;2023-03-17T10:09:05;17.50;99.90
14529;DHT22;7351;51.194;4.098;2023-03-17T10:11:38;17.40;99.90
14529;DHT22;7351;51.194;4.098;2023-03-17T10:14:16;17.40;99.90
14529;DHT22;7351;51.194;4.098;2023-03-17T10:16:50;17.30;99.90
14529;DHT22;7351;51.194;4.098;2023-03-17T10:19:24;17.30;99.90
14529;DHT22;7351;51.194;4.098;2023-03-17T10:21:55;17.30;99.90
14529;DHT22;7351;51.194;4.098;2023-03-17T10:24:24;17.30;99.90
14529;DHT22;7351;51.194;4.098;2023-03-17T10:26:55;17.30;99.90
14529;DHT22;7351;51.194;4.098;2023-03-17T10:29:23;17.30;99.90
14529;DHT22;7351;51.194;4.098;2023-03-17T10:31:51;17.40;99.90
14529;DHT22;7351;51.194;4.098;2023-03-17T10:34:25;17.30;99.90
14529;DHT22;7351;51.194;4.098;2023-03-17T10:36:54;17.30;99.90
14529;DHT22;7351;51.194;4.098;2023-03-17T10:39:22;17.30;99.90
14529;DHT22;7351;51.194;4.098;2023-03-17T10:41:55;17.30;99.90
14529;DHT22;7351;51.194;4.098;2023-03-17T10:44:34;17.30;99.90
14529;DHT22;7351;51.194;4.098;2023-03-17T10:47:04;17.30;99.90
14529;DHT22;7351;51.194;4.098;2023-03-17T10:49:35;17.40;99.90
14529;DHT22;7351;51.194;4.098;2023-03-17T10:52:05;17.40;99.90
14529;DHT22;7351;51.194;4.098;2023-03-17T10:54:34;17.30;99.90
14529;DHT22;7351;51.194;4.098;2023-03-17T10:57:05;17.30;99.90
14529;DHT22;7351;51.194;4.098;2023-03-17T10:59:41;17.30;99.90
14529;DHT22;7351;51.194;4.098;2023-03-17T11:02:18;17.30;99.90
14529;DHT22;7351;51.194;4.098;2023-03-17T11:04:47;17.40;99.90
14529;DHT22;7351;51.194;4.098;2023-03-17T11:07:17;17.40;99.90
14529;DHT22;7351;51.194;4.098;2023-03-17T11:09:47;17.40;99.90
14529;DHT22;7351;51.194;4.098;2023-03-17T11:12:23;17.40;99.90
14529;DHT22;7351;51.194;4.098;2023-03-17T11:14:56;17.40;99.90
14529;DHT22;7351;51.194;4.098;2023-03-17T11:17:37;17.40;99.90
14529;DHT22;7351;51.194;4.098;2023-03-17T11:20:30;17.40;99.90
14529;DHT22;7351;51.194;4.098;2023-03-17T11:23:05;17.40;99.90
14529;DHT22;7351;51.194;4.098;2023-03-17T11:25:40;17.40;99.90
14529;DHT22;7351;51.194;4.098;2023-03-17T11:28:16;17.40;99.90
14529;DHT22;7351;51.194;4.098;2023-03-17T11:30:50;17.40;99.90
14529;DHT22;7351;51.194;4.098;2023-03-17T11:33:31;17.50;99.90
14529;DHT22;7351;51.194;4.098;2023-03-17T11:36:07;17.40;99.90
14529;DHT22;7351;51.194;4.098;2023-03-17T11:38:38;17.40;99.90
14529;DHT22;7351;51.194;4.098;2023-03-17T11:41:29;17.50;99.90
14529;DHT22;7351;51.194;4.098;2023-03-17T11:44:17;17.50;99.90
14529;DHT22;7351;51.194;4.098;2023-03-17T11:46:51;17.40;99.90
14529;DHT22;7351;51.194;4.098;2023-03-17T11:49:29;17.40;99.90
14529;DHT22;7351;51.194;4.098;2023-03-17T11:52:04;17.40;99.90
14529;DHT22;7351;51.194;4.098;2023-03-17T11:54:42;17.40;99.90
14529;DHT22;7351;51.194;4.098;2023-03-17T11:57:13;17.50;99.90
14529;DHT22;7351;51.194;4.098;2023-03-17T11:59:48;17.50;99.90
14529;DHT22;7351;51.194;4.098;2023-03-17T12:02:21;17.50;99.90
14529;DHT22;7351;51.194;4.098;2023-03-17T12:04:52;17.50;99.90
14529;DHT22;7351;51.194;4.098;2023-03-17T12:07:25;17.60;99.90
14529;DHT22;7351;51.194;4.098;2023-03-17T12:10:00;17.60;99.90
14529;DHT22;7351;51.194;4.098;2023-03-17T12:12:32;17.60;99.90
14529;DHT22;7351;51.194;4.098;2023-03-17T12:15:02;17.60;99.90
14529;DHT22;7351;51.194;4.098;2023-03-17T12:17:34;17.60;99.90
14529;DHT22;7351;51.194;4.098;2023-03-17T12:20:08;17.60;99.90
14529;DHT22;7351;51.194;4.098;2023-03-17T12:22:43;17.60;99.90
14529;DHT22;7351;51.194;4.098;2023-03-17T12:25:17;17.70;99.90
14529;DHT22;7351;51.194;4.098;2023-03-17T12:27:51;17.70;99.90
14529;DHT22;7351;51.194;4.098;2023-03-17T12:30:25;17.70;99.90
14529;DHT22;7351;51.194;4.098;2023-03-17T12:32:59;17.70;99.90
14529;DHT22;7351;51.194;4.098;2023-03-17T12:35:32;17.70;99.90
14529;DHT22;7351;51.194;4.098;2023-03-17T12:38:06;17.70;99.90
14529;DHT22;7351;51.194;4.098;2023-03-17T12:40:37;17.70;99.90
14529;DHT22;7351;51.194;4.098;2023-03-17T12:43:32;17.70;99.90
14529;DHT22;7351;51.194;4.098;2023-03-17T12:49:24;17.70;99.90
14529;DHT22;7351;51.194;4.098;2023-03-17T12:52:12;17.70;99.90
14529;DHT22;7351;51.194;4.098;2023-03-17T12:54:47;17.70;99.90
14529;DHT22;7351;51.194;4.098;2023-03-17T12:57:17;17.80;99.90
14529;DHT22;7351;51.194;4.098;2023-03-17T12:59:47;17.80;99.90
14529;DHT22;7351;51.194;4.098;2023-03-17T13:02:20;17.80;99.90
14529;DHT22;7351;51.194;4.098;2023-03-17T13:04:51;17.80;99.90
14529;DHT22;7351;51.194;4.098;2023-03-17T13:07:23;17.80;99.90
14529;DHT22;7351;51.194;4.098;2023-03-17T13:10:11;17.90;99.90
14529;DHT22;7351;51.194;4.098;2023-03-17T13:13:04;17.90;99.90
14529;DHT22;7351;51.194;4.098;2023-03-17T13:16:02;17.90;99.90
14529;DHT22;7351;51.194;4.098;2023-03-17T13:18:51;18.00;99.90
14529;DHT22;7351;51.194;4.098;2023-03-17T13:21:27;18.00;99.90
14529;DHT22;7351;51.194;4.098;2023-03-17T13:26:54;18.00;99.90
14529;DHT22;7351;51.194;4.098;2023-03-17T13:29:40;18.10;99.90
14529;DHT22;7351;51.194;4.098;2023-03-17T13:32:30;18.10;99.90
14529;DHT22;7351;51.194;4.098;2023-03-17T13:35:14;18.10;99.90
14529;DHT22;7351;51.194;4.098;2023-03-17T13:37:52;18.20;99.90
14529;DHT22;7351;51.194;4.098;2023-03-17T13:40:28;18.20;99.90
14529;DHT22;7351;51.194;4.098;2023-03-17T13:43:11;18.30;99.90
14529;DHT22;7351;51.194;4.098;2023-03-17T13:45:44;18.30;99.90
14529;DHT22;7351;51.194;4.098;2023-03-17T13:48:31;18.30;99.90
14529;DHT22;7351;51.194;4.098;2023-03-17T13:51:03;18.40;99.90
14529;DHT22;7351;51.194;4.098;2023-03-17T13:53:36;18.40;99.90
14529;DHT22;7351;51.194;4.098;2023-03-17T13:56:09;18.40;99.90
14529;DHT22;7351;51.194;4.098;2023-03-17T13:59:10;18.40;99.90
14529;DHT22;7351;51.194;4.098;2023-03-17T14:01:42;18.40;99.90
14529;DHT22;7351;51.194;4.098;2023-03-17T14:04:20;18.40;99.90
14529;DHT22;7351;51.194;4.098;2023-03-17T14:06:50;18.40;99.90
14529;DHT22;7351;51.194;4.098;2023-03-17T14:09:34;18.40;99.90
14529;DHT22;7351;51.194;4.098;2023-03-17T14:12:06;18.40;99.90
14529;DHT22;7351;51.194;4.098;2023-03-17T14:14:41;18.50;99.90
14529;DHT22;7351;51.194;4.098;2023-03-17T14:17:13;18.50;99.90
14529;DHT22;7351;51.194;4.098;2023-03-17T14:19:58;18.50;99.90
14529;DHT22;7351;51.194;4.098;2023-03-17T14:22:26;18.60;99.90
14529;DHT22;7351;51.194;4.098;2023-03-17T14:24:54;18.50;99.90
14529;DHT22;7351;51.194;4.098;2023-03-17T14:27:22;18.60;99.90
14529;DHT22;7351;51.194;4.098;2023-03-17T14:29:51;18.60;99.90
14529;DHT22;7351;51.194;4.098;2023-03-17T14:32:19;18.60;99.90
14529;DHT22;7351;51.194;4.098;2023-03-17T14:34:54;18.60;99.90
14529;DHT22;7351;51.194;4.098;2023-03-17T14:37:22;18.60;99.90
14529;DHT22;7351;51.194;4.098;2023-03-17T14:39:51;18.70;99.90
14529;DHT22;7351;51.194;4.098;2023-03-17T14:42:23;18.70;99.90
14529;DHT22;7351;51.194;4.098;2023-03-17T14:44:59;18.70;99.90
14529;DHT22;7351;51.194;4.098;2023-03-17T14:47:27;18.70;99.90
14529;DHT22;7351;51.194;4.098;2023-03-17T14:49:55;18.70;99.90
14529;DHT22;7351;51.194;4.098;2023-03-17T14:52:25;18.70;99.90
14529;DHT22;7351;51.194;4.098;2023-03-17T14:54:54;18.70;99.90
14529;DHT22;7351;51.194;4.098;2023-03-17T14:57:26;18.70;99.90
14529;DHT22;7351;51.194;4.098;2023-03-17T14:59:57;18.70;99.90
14529;DHT22;7351;51.194;4.098;2023-03-17T15:02:30;18.80;99.90
14529;DHT22;7351;51.194;4.098;2023-03-17T15:05:02;18.70;99.90
14529;DHT22;7351;51.194;4.098;2023-03-17T15:07:34;18.70;99.90
14529;DHT22;7351;51.194;4.098;2023-03-17T15:10:04;18.80;99.90
14529;DHT22;7351;51.194;4.098;2023-03-17T15:12:32;18.70;99.90
14529;DHT22;7351;51.194;4.098;2023-03-17T15:15:03;18.70;99.90
14529;DHT22;7351;51.194;4.098;2023-03-17T15:17:33;18.80;99.90
14529;DHT22;7351;51.194;4.098;2023-03-17T15:20:02;18.70;99.90
14529;DHT22;7351;51.194;4.098;2023-03-17T15:22:39;18.70;99.90
14529;DHT22;7351;51.194;4.098;2023-03-17T15:25:17;18.70;99.90
14529;DHT22;7351;51.194;4.098;2023-03-17T15:27:45;18.70;99.90
14529;DHT22;7351;51.194;4.098;2023-03-17T15:30:14;18.70;99.90
14529;DHT22;7351;51.194;4.098;2023-03-17T15:32:41;18.80;99.90
14529;DHT22;7351;51.194;4.098;2023-03-17T15:35:11;18.70;99.90
14529;DHT22;7351;51.194;4.098;2023-03-17T15:37:41;18.70;99.90
14529;DHT22;7351;51.194;4.098;2023-03-17T15:40:09;18.70;99.90
14529;DHT22;7351;51.194;4.098;2023-03-17T15:42:37;18.80;99.90
14529;DHT22;7351;51.194;4.098;2023-03-17T15:45:05;18.70;99.90
14529;DHT22;7351;51.194;4.098;2023-03-17T15:47:35;18.70;99.90
14529;DHT22;7351;51.194;4.098;2023-03-17T15:50:14;18.70;99.90
14529;DHT22;7351;51.194;4.098;2023-03-17T15:52:42;18.70;99.90
14529;DHT22;7351;51.194;4.098;2023-03-17T15:55:15;18.70;99.90
14529;DHT22;7351;51.194;4.098;2023-03-17T15:57:42;18.70;99.90
14529;DHT22;7351;51.194;4.098;2023-03-17T16:00:15;18.70;99.90
14529;DHT22;7351;51.194;4.098;2023-03-17T16:02:45;18.70;99.90
14529;DHT22;7351;51.194;4.098;2023-03-17T16:05:16;18.70;99.90
14529;DHT22;7351;51.194;4.098;2023-03-17T16:07:45;18.70;99.90
14529;DHT22;7351;51.194;4.098;2023-03-17T16:10:17;18.70;99.90